Portada
METAR-TAF:

METAR-TAF

Aeropuertos :

McComb, Misisipi, Estados Unidos

latitud: 31-10-42N, longitud: 090-28-19W, altitud: 126 m

Observación

El informe se hizo hace 56 minutos, a las 21:53 UTC
Viento 11 kt del oeste-noroeste
Temperatura 16°C
Humedad 36%
Presión 1017 hPa
Visibilidad: 16.1 km
Cielo despejado

METAR: KMCB 242153Z AUTO 29011KT 10SM CLR 16/01 A3003 RMK AO2 SLP167 T01560006

Hora: 16:49 (22:49 UTC)

Pronóstico

El informe se hizo hace 5 horas y 12 minutos, a las 17:37 UTC
Pronóstico válido del 24 a las 18 UTC al 25 a las 18 UTC
Viento 11 kt del oeste-noroeste con ráfagas de 17 kt
Visibilidad: 10 km
Cielo despejado
A partir de las 25 a las 0000 UTC
Viento 4 kt del noroeste
Visibilidad: 10 km
Cielo despejado

TAF: KMCB 241737Z 2418/2518 29011G17KT P6SM SKC FM250000 31004KT P6SM SKC

Observaciones y pronósticos meteorológicos de más de 4000 aeropuertos (mensajes METAR y TAF).

Los puntos amarillos y rojos representan las estaciones disponibles.

Ponga el ratón en el punto deseado para ver el nombre de la estación.

Haga clic para ver las observaciones y los pronósticos meteorológicos.

Para cambiar el mapa : haga clic en los botones verdes con una cruz de color negro para hacer un zoom, en el botón verde con un guión para alejar o en las flechas verdes para mapas adyacentes.


METAR-TAF: